Time;durP1;ratioP1;P1;durP2;ratioP2;P2;SDS_P1;SDS_P2;PMS_P1;PMS_P2;Temp;Humidity;BMP_temperature;BMP_pressure;BME280_temperature;BME280_humidity;BME280_pressure;Samples;Min_cycle;Max_cycle;Signal;HPM_P1;HPM_P2
2023/03/10 00:09:11;;;;;;;24.1;17.1;;;;;;;6.3;87.1;97180;;;;
2023/03/10 00:20:10;;;;;;;24.1;17.1;;;;;;;6.7;87.7;97160;;;;
2023/03/10 00:30:10;;;;;;;15.4;9.5;;;;;;;6.9;87.7;97150;;;;
2023/03/10 00:41:10;;;;;;;15.4;9.5;;;;;;;6.8;87;97150;;;;
2023/03/10 00:51:10;;;;;;;15.4;9.5;;;;;;;6.7;86.5;97130;;;;
2023/03/10 01:01:10;;;;;;;19;13;;;;;;;7.2;87.4;97120;;;;
2023/03/10 01:12:10;;;;;;;19;13;;;;;;;7.7;86.1;97100;;;;
2023/03/10 01:22:10;;;;;;;;;;;;;;;;;;;;;
2023/03/10 01:32:10;;;;;;;4.8;2.7;;;;;;;8.6;81.9;97090;;;;
2023/03/10 01:42:10;;;;;;;4.8;2.7;;;;;;;8.9;80.3;97090;;;;
2023/03/10 01:53:10;;;;;;;4.3;1.5;;;;;;;8.9;79.4;97080;;;;
2023/03/10 02:04:10;;;;;;;4.3;1.5;;;;;;;8.9;78.6;97060;;;;
2023/03/10 02:14:10;;;;;;;4.3;1.5;;;;;;;8.9;78.6;97060;;;;
2023/03/10 02:24:10;;;;;;;5.6;1.8;;;;;;;9;78.4;97060;;;;
2023/03/10 02:34:10;;;;;;;5.6;1.8;;;;;;;9;77.8;97070;;;;
2023/03/10 02:45:10;;;;;;;5.6;1.8;;;;;;;8.9;77.5;97050;;;;
2023/03/10 02:55:10;;;;;;;2.9;1.4;;;;;;;8.9;77.4;97050;;;;
2023/03/10 03:05:10;;;;;;;2.9;1.4;;;;;;;8.9;77.2;97040;;;;
2023/03/10 03:15:11;;;;;;;2.9;1.4;;;;;;;9.1;76.6;97020;;;;
2023/03/10 03:26:10;;;;;;;2.9;1.5;;;;;;;9;77.2;97000;;;;
2023/03/10 03:37:10;;;;;;;2.9;1.5;;;;;;;8.9;77.2;97000;;;;
2023/03/10 03:48:10;;;;;;;2.9;1.5;;;;;;;8.5;78.4;96990;;;;
2023/03/10 03:59:10;;;;;;;4.2;1.7;;;;;;;8.3;79;96980;;;;
2023/03/10 04:10:10;;;;;;;4.2;1.7;;;;;;;8.2;79.1;96960;;;;
2023/03/10 04:21:10;;;;;;;3;1.6;;;;;;;8;79.6;96940;;;;
2023/03/10 04:32:10;;;;;;;3;1.6;;;;;;;7.9;79.6;96930;;;;
2023/03/10 04:42:10;;;;;;;3;1.6;;;;;;;7.9;79.5;96900;;;;
2023/03/10 04:53:10;;;;;;;4.1;1.5;;;;;;;7.8;79.5;96900;;;;
2023/03/10 05:04:10;;;;;;;4.1;1.5;;;;;;;7.7;79.5;96890;;;;
2023/03/10 05:15:10;;;;;;;4.1;1.5;;;;;;;7.6;79.5;96890;;;;
2023/03/10 05:26:10;;;;;;;3.2;1.4;;;;;;;7.4;79.6;96880;;;;
2023/03/10 05:37:11;;;;;;;3.2;1.4;;;;;;;7.4;79.7;96880;;;;
2023/03/10 05:48:10;;;;;;;3.2;1.4;;;;;;;7.5;79.9;96870;;;;
2023/03/10 05:59:10;;;;;;;2.8;1.3;;;;;;;7.8;79.4;96840;;;;
2023/03/10 06:09:10;;;;;;;2.8;1.3;;;;;;;7.9;79.2;96820;;;;
2023/03/10 06:20:10;;;;;;;2.8;1.3;;;;;;;8;79.1;96820;;;;
2023/03/10 06:30:11;;;;;;;3.9;2;;;;;;;8.3;78.7;96810;;;;
2023/03/10 06:41:10;;;;;;;3.9;2;;;;;;;8.7;77.8;96810;;;;
2023/03/10 06:51:11;;;;;;;3.9;2;;;;;;;9.4;76.4;96800;;;;
2023/03/10 07:02:10;;;;;;;3.9;2;;;;;;;9.9;75;96780;;;;
2023/03/10 07:12:10;;;;;;;3.9;2;;;;;;;10.4;74.7;96760;;;;
2023/03/10 07:22:10;;;;;;;4.2;1.9;;;;;;;11;70.7;96750;;;;
2023/03/10 07:32:10;;;;;;;4.2;1.9;;;;;;;11.6;69.1;96740;;;;
2023/03/10 07:43:10;;;;;;;4.2;1.9;;;;;;;12.1;66.8;96720;;;;
2023/03/10 07:53:10;;;;;;;3.9;1.7;;;;;;;12.5;66.4;96720;;;;
2023/03/10 08:04:11;;;;;;;3.9;1.7;;;;;;;13.1;61.9;96710;;;;
2023/03/10 08:14:10;;;;;;;3.9;1.7;;;;;;;14;55.5;96690;;;;
2023/03/10 08:24:10;;;;;;;6.3;1.8;;;;;;;14.5;54.9;96690;;;;
2023/03/10 08:34:10;;;;;;;6.3;1.8;;;;;;;15.1;55.3;96680;;;;
2023/03/10 08:44:14;;;;;;;6.3;1.8;;;;;;;15.7;52.2;96660;;;;
2023/03/10 08:55:10;;;;;;;4.1;1.2;;;;;;;16;51.5;96630;;;;
2023/03/10 09:05:10;;;;;;;4.1;1.2;;;;;;;16.4;52.2;96640;;;;
2023/03/10 09:15:11;;;;;;;4.1;1.2;;;;;;;16.4;52.4;96640;;;;
2023/03/10 09:25:10;;;;;;;2.5;1;;;;;;;16.4;52.8;96630;;;;
2023/03/10 09:36:10;;;;;;;2.5;1;;;;;;;16.5;53;96640;;;;
2023/03/10 09:46:10;;;;;;;2.5;1;;;;;;;16.8;52.2;96630;;;;
2023/03/10 09:57:10;;;;;;;3.2;1.3;;;;;;;16.9;52.4;96630;;;;
2023/03/10 10:08:10;;;;;;;3.2;1.3;;;;;;;17.5;52.3;96620;;;;
2023/03/10 10:18:11;;;;;;;3.2;1.3;;;;;;;17.6;51.1;96610;;;;
2023/03/10 10:28:10;;;;;;;3.9;1.6;;;;;;;17.6;49.5;96600;;;;
2023/03/10 10:39:10;;;;;;;3.9;1.6;;;;;;;17.2;49.4;96590;;;;
2023/03/10 10:49:10;;;;;;;3.9;1.6;;;;;;;17;50.3;96570;;;;
2023/03/10 11:00:11;;;;;;;7.3;1.8;;;;;;;17.1;50.3;96560;;;;
2023/03/10 11:11:10;;;;;;;;;;;;;;;;;;;;;
2023/03/10 11:21:11;;;;;;;4.6;1.5;;;;;;;17.2;49.1;96530;;;;
2023/03/10 11:31:10;;;;;;;4.6;1.5;;;;;;;17.6;49.9;96520;;;;
2023/03/10 11:41:10;;;;;;;4.6;1.5;;;;;;;17.9;47.4;96510;;;;
2023/03/10 11:51:11;;;;;;;2.9;1.8;;;;;;;18.1;47.7;96510;;;;
2023/03/10 12:02:11;;;;;;;2.9;1.8;;;;;;;18;47.9;96490;;;;
2023/03/10 12:13:10;;;;;;;2.9;1.8;;;;;;;18.1;47.5;96490;;;;
2023/03/10 12:24:10;;;;;;;3.5;1.7;;;;;;;18.4;46.8;96490;;;;
2023/03/10 12:34:11;;;;;;;3.5;1.7;;;;;;;18.4;46.9;96470;;;;
2023/03/10 12:45:11;;;;;;;3.5;1.7;;;;;;;17.7;47.6;96470;;;;
2023/03/10 12:56:10;;;;;;;4.7;1.6;;;;;;;17.5;47.7;96460;;;;
2023/03/10 13:06:12;;;;;;;4.7;1.6;;;;;;;17.8;47.5;96470;;;;
2023/03/10 13:17:10;;;;;;;4.7;1.6;;;;;;;17.3;48.2;96470;;;;
2023/03/10 13:27:10;;;;;;;8.6;1.8;;;;;;;16.7;48.6;96480;;;;
2023/03/10 13:37:10;;;;;;;8.6;1.8;;;;;;;16.5;50.4;96490;;;;
2023/03/10 13:47:10;;;;;;;8.6;1.8;;;;;;;16.8;49.7;96480;;;;
2023/03/10 13:57:11;;;;;;;6.3;1.9;;;;;;;17;49.9;96470;;;;
2023/03/10 14:07:11;;;;;;;6.3;1.9;;;;;;;17.1;49.5;96460;;;;
2023/03/10 14:17:10;;;;;;;6.3;1.9;;;;;;;16.9;49.3;96450;;;;
2023/03/10 14:27:11;;;;;;;5;1.8;;;;;;;16.8;50;96440;;;;
2023/03/10 14:38:11;;;;;;;5;1.8;;;;;;;16.6;50;96430;;;;
2023/03/10 14:48:10;;;;;;;5;1.8;;;;;;;16.5;50.1;96410;;;;
2023/03/10 14:58:11;;;;;;;6.1;2.7;;;;;;;16.5;49.9;96400;;;;
2023/03/10 15:08:11;;;;;;;6.1;2.7;;;;;;;16.4;51.2;96400;;;;
2023/03/10 15:19:11;;;;;;;6.1;2.7;;;;;;;16.2;50.9;96400;;;;
2023/03/10 15:29:11;;;;;;;9.4;6.4;;;;;;;16;52.1;96400;;;;
2023/03/10 15:40:11;;;;;;;9.4;6.4;;;;;;;15.8;52.9;96400;;;;
2023/03/10 15:50:11;;;;;;;9.4;6.4;;;;;;;15.5;53.9;96390;;;;
2023/03/10 16:00:11;;;;;;;6.3;2.7;;;;;;;15.1;55.1;96390;;;;
2023/03/10 16:11:12;;;;;;;6.3;2.7;;;;;;;14.8;55.8;96390;;;;
2023/03/10 16:22:11;;;;;;;8.1;4.8;;;;;;;14.4;56.8;96390;;;;
2023/03/10 16:32:12;;;;;;;8.1;4.8;;;;;;;14;57.8;96400;;;;
2023/03/10 16:42:11;;;;;;;8.1;4.8;;;;;;;13.9;58.7;96410;;;;
2023/03/10 16:53:11;;;;;;;9;5;;;;;;;14;59.1;96410;;;;
2023/03/10 17:03:11;;;;;;;9;5;;;;;;;14;59.3;96420;;;;
2023/03/10 17:13:11;;;;;;;9;5;;;;;;;13.6;62.9;96460;;;;
2023/03/10 17:24:11;;;;;;;10.5;5.5;;;;;;;13.1;64.9;96470;;;;
2023/03/10 17:34:11;;;;;;;10.5;5.5;;;;;;;12.6;67.2;96470;;;;
2023/03/10 17:44:11;;;;;;;10.5;5.5;;;;;;;12.2;68.9;96470;;;;
2023/03/10 17:54:11;;;;;;;7.4;2.6;;;;;;;11.8;72;96490;;;;
2023/03/10 18:04:11;;;;;;;7.4;2.6;;;;;;;11.3;76.3;96500;;;;
2023/03/10 18:15:11;;;;;;;7.4;2.6;;;;;;;10.6;81.1;96490;;;;
2023/03/10 18:26:11;;;;;;;8.9;4;;;;;;;10.1;83.2;96460;;;;
2023/03/10 18:36:12;;;;;;;8.9;4;;;;;;;10;80.3;96430;;;;
2023/03/10 18:46:11;;;;;;;8.9;4;;;;;;;9.8;83.2;96410;;;;
2023/03/10 18:57:11;;;;;;;5;2.2;;;;;;;9.6;84.5;96400;;;;
2023/03/10 19:07:13;;;;;;;5;2.2;;;;;;;9.7;83.1;96380;;;;
2023/03/10 19:17:11;;;;;;;5;2.2;;;;;;;9.6;83;96380;;;;
2023/03/10 19:27:11;;;;;;;7.4;3.3;;;;;;;9.7;82;96350;;;;
2023/03/10 19:37:11;;;;;;;7.4;3.3;;;;;;;9.7;81.7;96330;;;;
2023/03/10 19:48:11;;;;;;;7.4;3.3;;;;;;;9.8;80.4;96350;;;;
2023/03/10 19:58:11;;;;;;;11.2;6.6;;;;;;;9.8;80.1;96360;;;;
2023/03/10 20:08:11;;;;;;;11.2;6.6;;;;;;;9.6;81.4;96350;;;;
2023/03/10 20:18:11;;;;;;;11.2;6.6;;;;;;;9.7;80.8;96340;;;;
2023/03/10 20:29:11;;;;;;;8.6;5.3;;;;;;;9.7;80.1;96330;;;;
2023/03/10 20:40:11;;;;;;;8.6;5.3;;;;;;;9.6;79.9;96330;;;;
2023/03/10 20:50:11;;;;;;;8.6;5.3;;;;;;;9.3;80;96320;;;;
2023/03/10 21:00:11;;;;;;;23.1;13;;;;;;;9.1;79.2;96310;;;;
2023/03/10 21:11:11;;;;;;;23.1;13;;;;;;;9;79;96290;;;;
2023/03/10 21:21:12;;;;;;;8.1;4.9;;;;;;;8.8;79;96290;;;;
2023/03/10 21:31:11;;;;;;;8.1;4.9;;;;;;;8.8;80;96270;;;;
2023/03/10 21:41:11;;;;;;;8.1;4.9;;;;;;;8.7;80.4;96260;;;;
2023/03/10 21:52:11;;;;;;;10;5.8;;;;;;;8.7;80.8;96250;;;;
2023/03/10 22:02:11;;;;;;;10;5.8;;;;;;;8.8;80.9;96240;;;;
2023/03/10 22:12:11;;;;;;;10;5.8;;;;;;;8.8;81;96230;;;;
2023/03/10 22:23:11;;;;;;;14.5;10.5;;;;;;;8.8;81;96230;;;;
2023/03/10 22:33:11;;;;;;;14.5;10.5;;;;;;;8.9;81.1;96220;;;;
2023/03/10 22:43:11;;;;;;;14.5;10.5;;;;;;;9;80.9;96210;;;;
2023/03/10 22:54:11;;;;;;;23.7;13.9;;;;;;;9;80.9;96200;;;;
2023/03/10 23:04:11;;;;;;;23.7;13.9;;;;;;;9;80.5;96200;;;;
2023/03/10 23:14:11;;;;;;;23.7;13.9;;;;;;;9;79.3;96190;;;;
2023/03/10 23:25:11;;;;;;;10.7;5.8;;;;;;;9.1;78.7;96200;;;;
2023/03/10 23:36:11;;;;;;;10.7;5.8;;;;;;;9.1;78.6;96210;;;;
2023/03/10 23:47:11;;;;;;;10.7;5.8;;;;;;;9;78.9;96200;;;;
2023/03/10 23:57:11;;;;;;;7.7;3.5;;;;;;;8.8;79.3;96200;;;;
